Time;durP1;ratioP1;P1;durP2;ratioP2;P2;SDS_P1;SDS_P2;PMS_P1;PMS_P2;Temp;Humidity;BMP_temperature;BMP_pressure;BME280_temperature;BME280_humidity;BME280_pressure;Samples;Min_cycle;Max_cycle;Signal;HPM_P1;HPM_P2
2022/12/26 00:01:28;;;;;;;9.13;8.68;;;;;;;4.15;100.00;101861.56;5011478;28;20060;-69
2022/12/26 00:03:55;;;;;;;8.60;8.20;;;;;;;4.12;100.00;101853.88;5012308;28;20057;-68
2022/12/26 00:06:24;;;;;;;8.93;8.52;;;;;;;4.14;100.00;101853.78;5011548;28;20022;-70
2022/12/26 00:08:50;;;;;;;8.80;8.40;;;;;;;4.17;100.00;101845.69;5012366;28;20040;-69
2022/12/26 00:11:17;;;;;;;9.05;8.65;;;;;;;4.21;100.00;101846.34;5010556;28;20042;-69
2022/12/26 00:13:43;;;;;;;8.70;8.30;;;;;;;4.17;100.00;101848.31;5012038;28;20429;-69
2022/12/26 00:16:15;;;;;;;8.88;8.48;;;;;;;4.10;100.00;101847.88;5012394;28;20022;-69
2022/12/26 00:18:40;;;;;;;8.88;8.48;;;;;;;4.15;100.00;101858.94;5012039;28;20065;-69
2022/12/26 00:21:07;;;;;;;9.13;8.73;;;;;;;4.12;100.00;101848.63;5011862;28;20021;-68
2022/12/26 00:23:34;;;;;;;9.20;8.80;;;;;;;4.10;100.00;101849.66;5011415;28;20040;-69
2022/12/26 00:26:04;;;;;;;8.93;8.52;;;;;;;4.01;100.00;101852.88;4994409;28;20064;-69
2022/12/26 00:28:30;;;;;;;9.00;8.60;;;;;;;4.04;100.00;101857.94;5011987;28;20080;-69
2022/12/26 00:30:55;;;;;;;8.90;8.50;;;;;;;4.04;100.00;101843.03;5011944;28;20405;-68
2022/12/26 00:33:21;;;;;;;8.57;8.18;;;;;;;4.01;100.00;101843.22;5011595;28;20026;-69
2022/12/26 00:35:46;;;;;;;8.88;8.48;;;;;;;4.05;100.00;101844.72;5011972;28;20022;-68
2022/12/26 00:38:12;;;;;;;8.73;8.32;;;;;;;4.00;100.00;101836.28;5012071;28;20389;-68
2022/12/26 00:40:42;;;;;;;9.20;8.80;;;;;;;3.88;100.00;101834.47;5008556;28;20029;-68
2022/12/26 00:43:08;;;;;;;9.15;8.75;;;;;;;3.82;100.00;101829.63;5012215;28;20582;-69
2022/12/26 00:45:34;;;;;;;9.07;8.68;;;;;;;3.92;100.00;101829.88;5011657;28;20040;-69
2022/12/26 00:47:59;;;;;;;9.55;9.05;;;;;;;3.86;100.00;101831.09;5012036;28;20448;-69
2022/12/26 00:50:25;;;;;;;9.07;8.68;;;;;;;3.83;100.00;101834.78;5011868;28;20025;-68
2022/12/26 00:52:50;;;;;;;8.82;8.43;;;;;;;3.92;100.00;101835.13;5011726;28;20084;-69
2022/12/26 00:55:16;;;;;;;8.75;8.35;;;;;;;3.93;100.00;101837.63;5010208;28;20050;-69
2022/12/26 00:57:41;;;;;;;9.77;9.27;;;;;;;3.76;100.00;101837.91;5009783;28;20076;-68
2022/12/26 01:00:07;;;;;;;8.68;8.27;;;;;;;3.82;100.00;101845.38;5011815;28;20481;-69
2022/12/26 01:02:39;;;;;;;9.50;9.00;;;;;;;3.76;100.00;101845.78;5011092;28;20063;-70
2022/12/26 01:05:07;;;;;;;9.27;8.88;;;;;;;3.74;100.00;101850.25;5014848;28;20034;-70
2022/12/26 01:07:35;;;;;;;9.27;8.85;;;;;;;3.87;100.00;101848.53;5013027;28;20030;-70
2022/12/26 01:10:01;;;;;;;8.85;8.45;;;;;;;3.80;100.00;101848.06;5015630;28;20033;-68
2022/12/26 01:12:26;;;;;;;8.80;8.40;;;;;;;3.73;100.00;101846.78;5014379;28;20029;-69
2022/12/26 01:14:54;;;;;;;9.68;9.18;;;;;;;3.78;100.00;101843.88;5014714;28;20032;-69
2022/12/26 01:17:20;;;;;;;8.68;8.27;;;;;;;3.72;100.00;101845.09;5015616;28;20026;-70
2022/12/26 01:19:45;;;;;;;9.43;8.93;;;;;;;3.71;100.00;101840.81;5015261;28;20026;-70
2022/12/26 01:22:11;;;;;;;8.73;8.32;;;;;;;3.70;100.00;101848.78;5014498;28;20032;-69
2022/12/26 01:24:36;;;;;;;9.23;8.82;;;;;;;3.59;100.00;101841.56;5015178;28;20100;-69
2022/12/26 01:27:02;;;;;;;8.80;8.40;;;;;;;3.68;100.00;101837.53;5015292;28;20084;-69
2022/12/26 01:29:27;;;;;;;8.95;8.55;;;;;;;3.58;100.00;101837.28;5015160;28;20030;-69
2022/12/26 01:31:53;;;;;;;9.07;8.68;;;;;;;3.58;100.00;101832.88;5014590;28;20029;-69
2022/12/26 01:34:18;;;;;;;9.27;8.85;;;;;;;3.52;100.00;101843.75;5015201;28;20022;-70
2022/12/26 01:36:44;;;;;;;9.23;8.82;;;;;;;3.63;100.00;101844.84;5014893;28;20033;-70
2022/12/26 01:39:09;;;;;;;9.30;8.90;;;;;;;3.67;100.00;101851.59;5013758;28;20034;-70
2022/12/26 01:41:35;;;;;;;9.50;9.00;;;;;;;3.72;100.00;101857.38;5014756;28;20079;-70
2022/12/26 01:44:04;;;;;;;8.52;8.13;;;;;;;3.74;100.00;101858.97;5015205;28;20416;-69
2022/12/26 01:46:36;;;;;;;8.75;8.35;;;;;;;3.80;100.00;101855.13;5015044;28;20041;-70
2022/12/26 01:49:17;;;;;;;9.43;8.95;;;;;;;3.74;100.00;101852.88;5013939;28;20489;-69
2022/12/26 01:51:49;;;;;;;8.98;8.57;;;;;;;3.77;100.00;101855.31;5008574;28;20025;-69
2022/12/26 01:54:15;;;;;;;8.90;8.50;;;;;;;3.83;100.00;101847.91;5013523;28;20452;-69
2022/12/26 01:56:43;;;;;;;9.20;8.77;;;;;;;3.76;100.00;101845.78;5015009;28;20064;-69
2022/12/26 01:59:16;;;;;;;9.02;8.63;;;;;;;3.70;100.00;101831.25;5030137;28;20503;-69
2022/12/26 02:01:44;;;;;;;8.90;8.50;;;;;;;3.62;100.00;101836.16;5012522;28;20033;-69
2022/12/26 02:06:58;;;;;;;8.82;8.43;;;;;;;3.43;100.00;101830.38;5012907;28;20068;-69
2022/12/26 02:09:24;;;;;;;9.45;8.95;;;;;;;3.52;100.00;101832.41;5014422;28;20056;-69
2022/12/26 02:11:57;;;;;;;9.68;9.18;;;;;;;3.62;100.00;101844.03;5027263;28;20014;-69
2022/12/26 02:14:23;;;;;;;8.80;8.40;;;;;;;3.68;100.00;101845.41;5013475;28;20056;-69
2022/12/26 02:16:49;;;;;;;8.85;8.45;;;;;;;3.68;100.00;101851.50;5014390;28;20096;-69
2022/12/26 02:19:58;;;;;;;9.13;8.73;;;;;;;3.67;100.00;101841.94;5014342;28;20469;-69
2022/12/26 02:22:54;;;;;;;9.18;8.77;;;;;;;3.52;100.00;101837.66;5015035;28;20025;-69
2022/12/26 02:25:37;;;;;;;9.30;8.80;;;;;;;3.52;100.00;101833.25;5011874;28;20061;-69
2022/12/26 02:28:40;;;;;;;8.95;8.55;;;;;;;3.53;100.00;101834.97;5011968;28;20060;-69
2022/12/26 02:31:20;;;;;;;9.13;8.73;;;;;;;3.65;100.00;101840.34;5014092;28;20022;-68
2022/12/26 02:33:54;;;;;;;8.80;8.40;;;;;;;3.61;100.00;101839.72;5028347;28;20592;-69
2022/12/26 02:36:48;;;;;;;9.10;8.70;;;;;;;3.65;100.00;101833.31;5011868;28;20088;-69
2022/12/26 02:39:54;;;;;;;9.40;8.90;;;;;;;3.55;100.00;101819.94;5011950;28;20026;-69
2022/12/26 02:42:22;;;;;;;9.32;8.82;;;;;;;3.57;100.00;101819.84;4936915;29;20031;-69
2022/12/26 02:48:13;;;;;;;9.20;8.80;;;;;;;3.60;100.00;101820.50;4995053;28;20092;-69
2022/12/26 03:14:26;;;;;;;9.10;8.68;;;;;;;3.57;100.00;101809.34;5013100;28;20041;-68
2022/12/26 03:19:57;;;;;;;9.02;8.63;;;;;;;3.63;100.00;101814.22;5001831;28;20380;-69
2022/12/26 03:22:29;;;;;;;8.85;8.45;;;;;;;3.67;100.00;101818.31;5044916;28;20496;-69
2022/12/26 03:27:41;;;;;;;8.70;8.30;;;;;;;3.50;100.00;101811.53;5011975;28;20033;-69
2022/12/26 03:31:07;;;;;;;8.68;8.27;;;;;;;3.62;100.00;101822.19;5012236;28;20025;-70
2022/12/26 03:33:02;;;;;;;8.40;8.00;;;;;;;3.53;100.00;101828.88;4998694;28;20045;-69
2022/12/26 03:35:31;;;;;;;8.70;8.30;;;;;;;3.53;100.00;101824.47;5012919;28;20033;-69
2022/12/26 03:38:06;;;;;;;8.88;8.48;;;;;;;3.50;100.00;101829.03;5013038;28;20022;-69
2022/12/26 04:19:38;;;;;;;9.00;8.60;;;;;;;3.56;100.00;101842.63;5012206;28;20025;-69
2022/12/26 04:45:07;;;;;;;8.98;8.57;;;;;;;3.39;100.00;101813.16;5012158;28;20563;-70
2022/12/26 04:47:32;;;;;;;9.15;8.75;;;;;;;3.21;100.00;101796.78;5011668;28;20029;-69
2022/12/26 04:50:14;;;;;;;9.10;8.70;;;;;;;3.06;100.00;101801.19;5011856;28;20076;-69
2022/12/26 04:52:58;;;;;;;9.15;8.75;;;;;;;3.05;100.00;101794.28;5010592;28;20071;-69
2022/12/26 04:55:26;;;;;;;8.90;8.50;;;;;;;3.05;100.00;101802.97;5011684;28;20575;-69
2022/12/26 04:57:52;;;;;;;9.82;9.32;;;;;;;3.25;100.00;101799.13;5011601;28;20033;-68
2022/12/26 05:00:18;;;;;;;9.70;9.20;;;;;;;3.23;100.00;101800.13;5011497;28;20380;-69
2022/12/26 05:11:13;;;;;;;8.80;8.40;;;;;;;2.93;100.00;101802.88;5010698;28;20048;-69
2022/12/26 05:13:39;;;;;;;9.30;8.90;;;;;;;2.64;100.00;101815.13;5011660;28;20108;-69
2022/12/26 05:29:44;;;;;;;8.85;8.45;;;;;;;2.80;100.00;101864.88;5011430;28;20568;-69
2022/12/26 05:32:10;;;;;;;9.90;9.40;;;;;;;2.90;100.00;101872.06;5011045;28;20057;-69
2022/12/26 05:34:35;;;;;;;9.20;8.77;;;;;;;2.73;100.00;101867.84;5011443;28;20034;-69
2022/12/26 05:37:01;;;;;;;9.70;9.20;;;;;;;2.98;100.00;101863.75;5009805;28;20050;-68
2022/12/26 05:39:26;;;;;;;9.13;8.73;;;;;;;2.96;100.00;101868.25;5009690;28;20440;-69
2022/12/26 05:41:52;;;;;;;8.75;8.35;;;;;;;2.79;100.00;101874.47;5011142;28;20056;-69
2022/12/26 05:44:17;;;;;;;9.40;8.90;;;;;;;2.77;100.00;101871.09;5009957;28;20030;-70
2022/12/26 05:46:43;;;;;;;8.70;8.30;;;;;;;2.90;100.00;101866.81;5010550;28;20026;-70
2022/12/26 05:49:08;;;;;;;9.07;8.68;;;;;;;2.81;100.00;101849.03;5011578;28;20037;-70
2022/12/26 05:51:35;;;;;;;9.45;8.95;;;;;;;2.79;100.00;101845.66;5014661;28;20029;-69
2022/12/26 05:54:01;;;;;;;9.57;9.07;;;;;;;2.86;100.00;101851.38;5013574;28;20046;-69
2022/12/26 05:56:27;;;;;;;9.35;8.95;;;;;;;2.63;100.00;101857.97;5014633;28;20493;-69
2022/12/26 05:58:57;;;;;;;9.20;8.80;;;;;;;2.60;100.00;101858.19;5014226;28;20037;-69
2022/12/26 06:01:25;;;;;;;8.80;8.40;;;;;;;2.62;100.00;101849.28;5014516;28;20029;-69
2022/12/26 06:03:57;;;;;;;9.05;8.65;;;;;;;2.54;100.00;101845.44;5014626;28;20045;-69
2022/12/26 06:06:23;;;;;;;9.30;8.85;;;;;;;2.59;100.00;101828.53;5013381;28;20031;-69
2022/12/26 06:08:53;;;;;;;9.25;8.77;;;;;;;2.48;100.00;101818.66;5014241;28;20527;-69
2022/12/26 06:11:19;;;;;;;9.40;8.90;;;;;;;2.57;100.00;101826.91;5014513;28;20021;-69
2022/12/26 06:13:45;;;;;;;9.43;8.93;;;;;;;2.52;100.00;101834.22;5013873;28;20131;-69
2022/12/26 06:16:13;;;;;;;9.50;9.00;;;;;;;2.39;100.00;101845.41;5014376;28;20481;-69
2022/12/26 06:18:39;;;;;;;9.23;8.77;;;;;;;2.57;100.00;101843.50;5014283;28;20493;-69
2022/12/26 06:21:11;;;;;;;9.05;8.65;;;;;;;2.49;100.00;101843.06;5012063;28;20037;-69
2022/12/26 06:23:37;;;;;;;9.73;9.23;;;;;;;2.55;100.00;101840.09;5014058;28;20064;-69
2022/12/26 06:26:04;;;;;;;8.73;8.32;;;;;;;2.55;100.00;101845.34;5014359;28;20232;-69
2022/12/26 06:28:30;;;;;;;9.20;8.80;;;;;;;2.46;100.00;101841.50;5014054;28;20583;-69
2022/12/26 06:31:03;;;;;;;9.55;9.05;;;;;;;2.49;100.00;101835.22;5014061;28;20025;-69
2022/12/26 06:33:29;;;;;;;8.77;8.38;;;;;;;2.59;100.00;101832.91;5010115;28;20026;-69
2022/12/26 06:35:54;;;;;;;8.85;8.45;;;;;;;2.46;100.00;101820.53;5012071;28;20028;-70
2022/12/26 06:38:19;;;;;;;9.40;8.93;;;;;;;2.51;100.00;101811.59;5013909;28;20034;-69
2022/12/26 06:40:45;;;;;;;9.13;8.73;;;;;;;2.55;100.00;101802.59;5013657;28;20033;-69
2022/12/26 06:43:10;;;;;;;9.40;8.90;;;;;;;2.51;100.00;101806.34;5013620;28;20041;-69
2022/12/26 06:45:36;;;;;;;9.60;9.10;;;;;;;2.53;100.00;101794.84;5013597;28;20036;-68
2022/12/26 06:48:01;;;;;;;9.25;8.77;;;;;;;2.58;100.00;101787.56;5013874;28;20033;-70
2022/12/26 06:50:27;;;;;;;9.40;8.93;;;;;;;2.75;100.00;101803.09;5012812;28;20087;-69
2022/12/26 06:52:53;;;;;;;9.00;8.60;;;;;;;2.73;100.00;101796.25;5013285;28;20049;-69
2022/12/26 06:55:18;;;;;;;9.68;9.18;;;;;;;2.66;100.00;101798.41;5012520;28;20038;-70
2022/12/26 06:57:44;;;;;;;9.48;8.98;;;;;;;2.85;100.00;101802.50;5014006;28;20088;-69
2022/12/26 07:00:10;;;;;;;8.95;8.55;;;;;;;2.78;100.00;101788.94;5013257;28;20053;-69
2022/12/26 07:02:36;;;;;;;9.73;9.23;;;;;;;2.71;100.00;101801.56;5010325;28;20052;-69
2022/12/26 07:05:01;;;;;;;10.43;9.82;;;;;;;2.68;100.00;101799.16;5013264;28;20017;-70
2022/12/26 07:07:28;;;;;;;9.57;9.07;;;;;;;2.22;100.00;101798.44;5013308;28;20056;-70
2022/12/26 07:09:53;;;;;;;9.13;8.73;;;;;;;2.38;100.00;101788.72;5013086;28;20030;-69
2022/12/26 07:12:20;;;;;;;9.02;8.63;;;;;;;2.62;100.00;101788.19;5011615;28;20036;-70
2022/12/26 07:14:46;;;;;;;9.48;8.98;;;;;;;2.61;100.00;101781.28;5013239;28;20521;-70
2022/12/26 07:17:12;;;;;;;9.40;8.95;;;;;;;2.78;100.00;101784.53;5013174;28;20032;-70
2022/12/26 07:19:37;;;;;;;9.00;8.60;;;;;;;2.87;100.00;101784.94;5013303;28;20037;-68
2022/12/26 07:22:03;;;;;;;9.80;9.30;;;;;;;2.67;100.00;101781.75;5013060;28;20084;-69
2022/12/26 07:24:28;;;;;;;9.20;8.80;;;;;;;2.82;100.00;101777.34;5012856;28;20104;-69
2022/12/26 07:26:54;;;;;;;9.10;8.70;;;;;;;2.62;100.00;101775.94;5012192;28;20539;-70
2022/12/26 07:29:20;;;;;;;9.75;9.25;;;;;;;2.38;100.00;101775.63;5012532;28;20351;-70
2022/12/26 07:31:46;;;;;;;9.90;9.40;;;;;;;2.25;100.00;101766.81;5012703;28;20054;-69
2022/12/26 07:34:11;;;;;;;9.60;9.10;;;;;;;2.03;100.00;101774.25;5012460;28;20065;-69
2022/12/26 07:36:37;;;;;;;9.55;9.05;;;;;;;2.16;100.00;101780.44;5012430;28;20508;-70
2022/12/26 07:39:03;;;;;;;9.40;9.00;;;;;;;2.33;100.00;101784.69;5012584;28;20038;-69
2022/12/26 07:44:12;;;;;;;9.43;9.00;;;;;;;2.47;100.00;101771.63;5009078;28;20044;-69
2022/12/26 07:46:38;;;;;;;9.35;8.93;;;;;;;2.58;100.00;101778.84;5012293;28;20113;-70
2022/12/26 07:49:03;;;;;;;8.80;8.40;;;;;;;2.71;100.00;101769.28;5012565;28;20384;-68
2022/12/26 07:51:29;;;;;;;9.10;8.70;;;;;;;2.72;100.00;101774.47;5012674;28;20053;-70
2022/12/26 07:53:54;;;;;;;9.30;8.90;;;;;;;2.58;100.00;101763.97;5012575;28;20036;-70
2022/12/26 07:56:20;;;;;;;9.20;8.80;;;;;;;2.71;100.00;101774.53;5012468;28;20046;-70
2022/12/26 07:58:51;;;;;;;9.85;9.35;;;;;;;2.62;100.00;101783.78;5011902;28;20109;-70
2022/12/26 08:01:16;;;;;;;8.85;8.45;;;;;;;2.53;100.00;101780.91;5011244;28;20037;-70
2022/12/26 08:03:42;;;;;;;9.73;9.23;;;;;;;2.65;100.00;101777.53;5012251;28;20026;-69
2022/12/26 08:06:10;;;;;;;9.25;8.85;;;;;;;2.99;100.00;101771.06;5012453;28;20057;-70
2022/12/26 08:08:36;;;;;;;9.68;9.18;;;;;;;3.10;100.00;101773.88;5012406;28;20026;-69
2022/12/26 08:11:04;;;;;;;9.35;8.93;;;;;;;3.19;100.00;101759.34;5012437;28;20034;-69
2022/12/26 08:13:29;;;;;;;9.20;8.80;;;;;;;3.18;100.00;101753.25;5011451;28;20022;-69
2022/12/26 08:15:55;;;;;;;9.05;8.65;;;;;;;3.07;100.00;101745.19;5012513;28;20024;-69
2022/12/26 08:18:21;;;;;;;8.80;8.40;;;;;;;3.49;100.00;101754.75;5010094;28;20495;-69
2022/12/26 08:20:47;;;;;;;9.13;8.73;;;;;;;3.73;100.00;101754.94;5012051;28;20022;-69
2022/12/26 08:23:12;;;;;;;9.10;8.70;;;;;;;3.78;100.00;101741.53;5011519;28;20030;-69
2022/12/26 08:25:38;;;;;;;9.23;8.82;;;;;;;3.81;100.00;101738.69;5010797;28;20167;-69
2022/12/26 08:28:03;;;;;;;9.30;8.80;;;;;;;4.46;100.00;101733.41;5011128;28;20032;-69
2022/12/26 08:30:29;;;;;;;8.55;8.15;;;;;;;3.96;100.00;101729.78;5011809;28;20021;-70
2022/12/26 08:32:54;;;;;;;8.85;8.45;;;;;;;4.24;100.00;101736.66;5011665;28;20049;-70
2022/12/26 08:35:20;;;;;;;8.52;8.13;;;;;;;4.67;100.00;101749.47;5011196;28;20029;-70
2022/12/26 08:37:46;;;;;;;8.70;8.30;;;;;;;4.29;100.00;101760.00;5012094;28;20033;-69
2022/12/26 08:40:12;;;;;;;8.40;8.00;;;;;;;4.52;100.00;101751.38;5012402;28;20102;-68
2022/12/26 08:42:37;;;;;;;9.73;9.23;;;;;;;4.50;100.00;101740.13;5010825;28;20393;-70
2022/12/26 08:45:03;;;;;;;8.50;8.10;;;;;;;4.51;100.00;101752.31;5011820;28;20393;-71
2022/12/26 08:47:29;;;;;;;9.07;8.68;;;;;;;4.24;100.00;101746.31;5011851;28;20120;-70
2022/12/26 08:49:54;;;;;;;9.27;8.82;;;;;;;4.57;100.00;101746.66;5011980;28;20099;-70
2022/12/26 08:52:20;;;;;;;8.95;8.55;;;;;;;4.43;100.00;101738.88;5011515;28;20069;-70
2022/12/26 08:54:45;;;;;;;9.65;9.15;;;;;;;4.52;100.00;101746.13;5011508;28;20088;-70
2022/12/26 08:57:10;;;;;;;9.82;9.32;;;;;;;4.79;100.00;101739.91;5010362;28;20481;-70
2022/12/26 08:59:36;;;;;;;9.18;8.77;;;;;;;4.72;100.00;101723.72;5011683;28;20026;-69
2022/12/26 09:02:01;;;;;;;9.57;9.07;;;;;;;4.89;100.00;101720.72;5011768;28;20473;-69
2022/12/26 09:04:27;;;;;;;9.52;9.05;;;;;;;4.36;100.00;101714.81;5011521;28;20041;-70
2022/12/26 09:06:52;;;;;;;8.95;8.55;;;;;;;3.54;100.00;101715.94;5010101;28;20126;-70
2022/12/26 09:09:18;;;;;;;9.10;8.70;;;;;;;3.28;100.00;101706.28;5009562;28;20022;-70
2022/12/26 09:11:43;;;;;;;9.23;8.82;;;;;;;4.18;100.00;101699.47;5011526;28;20018;-69
2022/12/26 09:14:10;;;;;;;8.80;8.40;;;;;;;3.49;100.00;101699.66;5012068;28;20115;-69
2022/12/26 09:16:45;;;;;;;9.15;8.75;;;;;;;3.62;100.00;101715.44;5011716;28;20026;-69
2022/12/26 09:19:13;;;;;;;9.45;9.02;;;;;;;4.31;100.00;101705.56;5011182;28;20029;-70
2022/12/26 09:21:39;;;;;;;10.07;9.57;;;;;;;4.15;100.00;101698.72;5010856;28;20022;-69
2022/12/26 09:24:09;;;;;;;9.38;8.95;;;;;;;4.06;100.00;101691.47;5008414;28;20037;-69
2022/12/26 09:26:36;;;;;;;9.10;8.70;;;;;;;4.16;100.00;101678.56;5012987;28;20029;-69
2022/12/26 09:29:02;;;;;;;9.43;9.00;;;;;;;4.66;100.00;101672.41;5015301;28;20101;-69
2022/12/26 09:31:31;;;;;;;9.65;9.15;;;;;;;4.27;100.00;101656.81;5013435;28;20030;-69
2022/12/26 09:33:56;;;;;;;9.27;8.88;;;;;;;4.03;100.00;101667.19;5014694;28;20076;-70
2022/12/26 09:36:28;;;;;;;10.05;9.55;;;;;;;4.31;100.00;101664.38;5014834;28;20033;-68
2022/12/26 09:38:55;;;;;;;10.02;9.52;;;;;;;4.52;100.00;101653.31;5013047;28;20485;-70
2022/12/26 09:41:42;;;;;;;10.30;9.80;;;;;;;4.64;100.00;101663.81;5014686;28;20036;-69
2022/12/26 09:44:25;;;;;;;9.80;9.30;;;;;;;4.54;100.00;101656.66;5013789;28;20026;-69
2022/12/26 09:46:59;;;;;;;10.10;9.60;;;;;;;4.55;100.00;101656.56;5014799;28;20522;-69
2022/12/26 09:49:35;;;;;;;9.52;9.05;;;;;;;4.64;100.00;101660.34;5012566;28;20030;-69
2022/12/26 09:52:11;;;;;;;9.00;8.60;;;;;;;4.83;100.00;101660.69;5010148;28;20041;-69
2022/12/26 09:55:02;;;;;;;9.80;9.30;;;;;;;4.89;100.00;101664.69;5014499;28;20374;-69
2022/12/26 09:57:40;;;;;;;9.57;9.10;;;;;;;5.11;100.00;101656.91;5014408;28;20428;-70
2022/12/26 10:00:11;;;;;;;10.02;9.52;;;;;;;5.33;100.00;101674.59;5012886;28;20021;-70
2022/12/26 10:02:37;;;;;;;9.27;8.88;;;;;;;5.85;100.00;101677.78;5008876;28;20640;-69
2022/12/26 10:05:04;;;;;;;8.80;8.40;;;;;;;5.80;100.00;101671.09;5014559;28;20116;-70
2022/12/26 10:07:43;;;;;;;9.02;8.63;;;;;;;5.61;100.00;101651.50;5013254;28;20092;-69
2022/12/26 10:10:12;;;;;;;8.88;8.48;;;;;;;5.61;100.00;101656.78;5014756;28;20147;-70
2022/12/26 10:12:53;;;;;;;9.70;9.20;;;;;;;5.69;100.00;101639.44;5014674;28;20025;-70
2022/12/26 10:15:52;;;;;;;9.15;8.75;;;;;;;5.64;100.00;101635.47;5014142;28;20030;-69
2022/12/26 10:19:02;;;;;;;8.90;8.50;;;;;;;6.14;100.00;101620.28;5011665;28;20393;-69
2022/12/26 10:22:05;;;;;;;9.20;8.80;;;;;;;5.23;100.00;101632.34;5011934;28;20030;-69
2022/12/26 10:24:36;;;;;;;8.98;8.57;;;;;;;5.39;100.00;101642.59;5008930;28;20137;-69
2022/12/26 10:27:15;;;;;;;8.90;8.50;;;;;;;5.08;100.00;101643.16;5014122;28;20025;-69
2022/12/26 10:30:06;;;;;;;10.60;10.00;;;;;;;4.79;100.00;101642.63;5012770;28;20344;-69
2022/12/26 10:32:46;;;;;;;9.45;8.98;;;;;;;4.71;100.00;101641.41;5013784;28;20025;-69
2022/12/26 10:35:19;;;;;;;9.38;8.98;;;;;;;4.77;100.00;101647.16;5011770;28;20065;-69
2022/12/26 10:37:46;;;;;;;10.02;9.52;;;;;;;4.66;100.00;101651.38;5013767;28;20088;-70
2022/12/26 10:40:30;;;;;;;9.68;9.18;;;;;;;4.57;100.00;101651.22;5013625;28;20478;-69
2022/12/26 10:42:59;;;;;;;9.57;9.10;;;;;;;4.59;100.00;101647.50;5014031;28;20034;-68
2022/12/26 10:45:59;;;;;;;9.48;9.00;;;;;;;4.42;100.00;101651.34;5013900;28;20119;-70
2022/12/26 10:48:27;;;;;;;9.20;8.80;;;;;;;4.59;100.00;101642.25;5015225;28;20385;-70
2022/12/26 10:50:53;;;;;;;8.98;8.57;;;;;;;4.61;100.00;101644.78;5012165;28;20056;-70
2022/12/26 10:53:18;;;;;;;9.60;9.15;;;;;;;4.50;100.00;101626.31;5014449;28;20489;-69
2022/12/26 10:55:44;;;;;;;9.70;9.20;;;;;;;4.63;100.00;101627.13;5013675;28;20050;-70
2022/12/26 10:58:28;;;;;;;9.45;9.00;;;;;;;4.73;100.00;101615.00;5014613;28;20033;-69
2022/12/26 11:00:54;;;;;;;9.80;9.30;;;;;;;4.81;100.00;101617.06;5013279;28;20026;-70
2022/12/26 11:03:20;;;;;;;9.30;8.90;;;;;;;4.92;100.00;101607.47;5013971;28;20049;-69
2022/12/26 11:05:54;;;;;;;9.70;9.20;;;;;;;4.63;100.00;101606.94;5014158;28;20034;-69
2022/12/26 11:08:31;;;;;;;9.10;8.70;;;;;;;4.61;100.00;101594.84;5013761;28;20385;-69
2022/12/26 11:11:02;;;;;;;9.23;8.82;;;;;;;4.51;100.00;101589.41;5014838;28;20040;-70
2022/12/26 11:13:31;;;;;;;9.85;9.35;;;;;;;4.49;100.00;101588.69;5014530;28;20440;-69
2022/12/26 11:15:56;;;;;;;9.50;9.02;;;;;;;4.51;100.00;101585.94;5011658;28;20477;-70
2022/12/26 11:18:33;;;;;;;9.85;9.35;;;;;;;4.33;100.00;101564.44;5014284;28;20036;-70
2022/12/26 11:21:16;;;;;;;9.25;8.85;;;;;;;4.46;100.00;101564.41;5014637;28;20072;-69
2022/12/26 11:23:46;;;;;;;9.25;8.85;;;;;;;4.56;100.00;101568.06;5010696;28;20108;-69
2022/12/26 11:26:26;;;;;;;9.77;9.27;;;;;;;4.41;100.00;101573.47;5012407;28;20556;-70
2022/12/26 11:29:11;;;;;;;9.30;8.90;;;;;;;4.71;100.00;101573.06;5013282;28;20033;-70
2022/12/26 11:31:41;;;;;;;9.75;9.25;;;;;;;4.38;100.00;101567.59;5011689;28;20033;-70
2022/12/26 11:34:10;;;;;;;9.68;9.18;;;;;;;4.57;100.00;101565.34;5010870;28;20552;-69
2022/12/26 11:36:39;;;;;;;9.48;9.02;;;;;;;4.61;100.00;101561.50;5011002;28;20030;-69
2022/12/26 11:39:17;;;;;;;9.77;9.30;;;;;;;4.66;100.00;101548.88;5006469;28;20050;-70
2022/12/26 11:41:45;;;;;;;11.60;10.90;;;;;;;4.67;100.00;101528.69;5012699;28;20026;-70
2022/12/26 11:44:13;;;;;;;9.70;9.20;;;;;;;4.70;100.00;101523.22;5009724;28;20053;-70
2022/12/26 11:46:38;;;;;;;9.65;9.15;;;;;;;4.77;100.00;101534.13;5013216;28;20417;-69
2022/12/26 11:49:05;;;;;;;10.20;9.70;;;;;;;4.68;100.00;101512.81;5012093;28;20025;-70
2022/12/26 11:51:34;;;;;;;9.50;9.00;;;;;;;4.67;100.00;101528.69;5010956;28;20516;-70
2022/12/26 11:54:46;;;;;;;9.80;9.30;;;;;;;4.77;100.00;101518.34;5011434;28;20432;-70
2022/12/26 11:57:21;;;;;;;8.98;8.57;;;;;;;4.84;100.00;101524.81;4950533;29;20086;-70
2022/12/26 11:59:48;;;;;;;9.15;8.75;;;;;;;4.67;100.00;101524.28;4990355;28;20041;-69
2022/12/26 12:02:22;;;;;;;9.60;9.10;;;;;;;4.81;100.00;101519.81;4971153;28;20026;-70
2022/12/26 12:04:49;;;;;;;8.73;8.32;;;;;;;4.61;100.00;101519.47;4967688;28;20102;-70
2022/12/26 12:07:40;;;;;;;9.45;9.02;;;;;;;4.66;100.00;101517.34;4973332;28;20161;-71
2022/12/26 12:10:46;;;;;;;9.20;8.80;;;;;;;4.66;100.00;101511.25;4972295;28;20070;-70
2022/12/26 12:13:44;;;;;;;9.35;8.90;;;;;;;4.85;100.00;101506.34;4971160;28;20065;-69
2022/12/26 12:16:33;;;;;;;9.00;8.60;;;;;;;4.71;100.00;101503.88;4970384;28;20074;-69
2022/12/26 12:19:34;;;;;;;9.27;8.88;;;;;;;4.66;100.00;101500.75;4971960;28;20425;-71
2022/12/26 12:22:14;;;;;;;9.10;8.70;;;;;;;4.57;100.00;101494.38;4973127;28;20026;-70
2022/12/26 12:24:54;;;;;;;10.35;9.82;;;;;;;4.77;100.00;101494.69;4971589;28;20027;-69
2022/12/26 12:27:26;;;;;;;9.32;8.93;;;;;;;4.77;100.00;101495.53;4972863;28;20026;-70
2022/12/26 12:30:13;;;;;;;9.40;8.90;;;;;;;4.80;100.00;101481.34;4971709;28;20038;-70
2022/12/26 12:32:48;;;;;;;10.27;9.77;;;;;;;4.89;100.00;101470.13;4970519;28;20106;-70
2022/12/26 12:35:41;;;;;;;9.98;9.48;;;;;;;4.86;100.00;101465.94;4971952;28;20038;-70
2022/12/26 12:38:25;;;;;;;9.38;8.98;;;;;;;4.83;100.00;101468.78;4967187;28;20558;-69
2022/12/26 12:41:06;;;;;;;9.43;8.95;;;;;;;4.91;100.00;101482.19;4972765;28;20110;-69
2022/12/26 12:43:49;;;;;;;9.73;9.23;;;;;;;5.02;100.00;101480.56;4972922;28;20085;-70
2022/12/26 12:46:41;;;;;;;9.70;9.20;;;;;;;5.19;100.00;101467.81;4972468;28;20027;-70
2022/12/26 12:49:23;;;;;;;9.23;8.82;;;;;;;4.95;100.00;101470.50;4969465;28;20026;-70
2022/12/26 12:51:58;;;;;;;9.70;9.20;;;;;;;4.92;100.00;101470.75;4970203;28;20498;-69
2022/12/26 12:54:53;;;;;;;9.60;9.13;;;;;;;4.91;100.00;101468.22;4973621;28;20058;-69
2022/12/26 12:57:44;;;;;;;10.00;9.50;;;;;;;4.87;100.00;101472.88;5010924;28;20025;-70
2022/12/26 13:00:12;;;;;;;10.05;9.55;;;;;;;4.91;100.00;101478.72;5013432;28;20028;-69
2022/12/26 13:03:04;;;;;;;9.63;9.13;;;;;;;5.32;100.00;101472.13;5013369;28;20026;-69
2022/12/26 13:05:48;;;;;;;9.40;8.98;;;;;;;5.22;100.00;101477.28;5015755;28;20440;-70
2022/12/26 13:08:39;;;;;;;8.80;8.40;;;;;;;5.31;100.00;101473.94;5012977;28;20040;-71
2022/12/26 13:11:16;;;;;;;9.20;8.80;;;;;;;5.18;100.00;101478.44;5014972;28;20034;-69
2022/12/26 13:13:58;;;;;;;9.80;9.30;;;;;;;5.09;100.00;101477.38;5013532;28;20014;-69
2022/12/26 13:16:32;;;;;;;9.00;8.60;;;;;;;5.45;100.00;101472.88;5015645;28;20068;-69
2022/12/26 13:19:03;;;;;;;9.30;8.82;;;;;;;5.65;100.00;101466.88;5015202;28;20029;-69
2022/12/26 13:21:33;;;;;;;9.10;8.70;;;;;;;5.33;100.00;101458.03;5015213;28;20045;-69
2022/12/26 13:24:33;;;;;;;9.70;9.20;;;;;;;5.16;100.00;101456.69;5012078;28;20033;-69
2022/12/26 13:27:43;;;;;;;9.20;8.80;;;;;;;5.10;100.00;101455.38;5011270;28;20038;-70
2022/12/26 13:30:15;;;;;;;9.45;9.00;;;;;;;5.01;100.00;101449.97;5010708;28;20038;-69
2022/12/26 13:32:41;;;;;;;9.23;8.82;;;;;;;5.06;100.00;101443.38;5010346;28;20026;-68
2022/12/26 13:35:45;;;;;;;9.15;8.75;;;;;;;4.91;100.00;101448.00;5015571;28;20389;-70
2022/12/26 13:38:10;;;;;;;10.02;9.52;;;;;;;5.07;100.00;101442.47;5014970;28;20492;-68
2022/12/26 13:40:36;;;;;;;9.38;8.93;;;;;;;4.88;100.00;101442.16;5015191;28;20037;-70
2022/12/26 13:45:53;;;;;;;9.73;9.23;;;;;;;4.97;100.00;101428.31;5014336;28;20037;-70
2022/12/26 13:48:24;;;;;;;9.13;8.73;;;;;;;4.90;100.00;101435.00;5012895;28;20405;-70
2022/12/26 13:50:54;;;;;;;9.75;9.25;;;;;;;4.93;100.00;101427.72;5014464;28;20091;-70